createdAt,value
2018-08-28T00:01:12.778Z,6.40
2018-08-28T00:03:39.711Z,6.53
2018-08-28T00:06:06.624Z,6.60
2018-08-28T00:08:33.861Z,8.00
2018-08-28T00:11:00.837Z,9.00
2018-08-28T00:13:27.750Z,7.27
2018-08-28T00:15:55.101Z,7.30
2018-08-28T00:18:22.012Z,6.93
2018-08-28T00:20:48.932Z,6.13
2018-08-28T00:23:15.893Z,7.33
2018-08-28T00:25:42.796Z,6.70
2018-08-28T00:28:09.717Z,8.10
2018-08-28T00:30:37.076Z,7.00
2018-08-28T00:33:03.996Z,6.07
2018-08-28T00:35:30.940Z,7.07
2018-08-28T00:37:57.872Z,6.90
2018-08-28T00:40:24.805Z,7.30
2018-08-28T00:42:51.742Z,7.37
2018-08-28T00:45:18.717Z,6.40
2018-08-28T00:47:45.669Z,7.17
2018-08-28T00:50:12.611Z,7.20
2018-08-28T00:52:39.604Z,7.07
2018-08-28T00:55:06.585Z,6.87
2018-08-28T00:57:33.645Z,7.10
2018-08-28T01:00:01.259Z,7.23
2018-08-28T01:02:28.240Z,7.20
2018-08-28T01:04:55.192Z,7.63
2018-08-28T01:07:22.494Z,7.80
2018-08-28T01:09:49.665Z,6.70
2018-08-28T01:12:18.113Z,7.13
2018-08-28T01:14:45.539Z,7.07
2018-08-28T01:17:12.480Z,7.23
2018-08-28T01:19:39.414Z,7.80
2018-08-28T01:22:06.774Z,6.80
2018-08-28T01:24:33.725Z,6.60
2018-08-28T01:27:00.649Z,7.50
2018-08-28T01:29:30.918Z,7.30
2018-08-28T01:31:57.970Z,7.47
2018-08-28T01:34:24.901Z,7.50
2018-08-28T01:36:52.104Z,6.93
2018-08-28T01:39:19.030Z,7.20
2018-08-28T01:41:45.961Z,7.43
2018-08-28T01:44:13.172Z,7.23
2018-08-28T01:46:40.109Z,8.43
2018-08-28T01:49:07.053Z,7.70
2018-08-28T01:51:34.010Z,7.67
2018-08-28T01:54:00.969Z,8.10
2018-08-28T01:56:27.953Z,7.90
2018-08-28T01:58:55.305Z,8.20
2018-08-28T02:01:29.228Z,7.90
2018-08-28T02:03:56.572Z,8.33
2018-08-28T02:06:23.568Z,7.67
2018-08-28T02:08:50.525Z,7.37
2018-08-28T02:11:17.816Z,7.80
2018-08-28T02:13:44.777Z,7.60
2018-08-28T02:16:11.733Z,8.20
2018-08-28T02:18:38.693Z,7.60
2018-08-28T02:21:05.752Z,7.60
2018-08-28T02:23:32.779Z,8.13
2018-08-28T02:26:00.207Z,7.90
2018-08-28T02:28:27.237Z,7.60
2018-08-28T02:30:54.264Z,8.00
2018-08-28T02:33:21.469Z,7.97
2018-08-28T02:35:48.415Z,8.43
2018-08-28T02:38:15.348Z,7.40
2018-08-28T02:40:42.596Z,8.00
2018-08-28T02:43:09.520Z,8.70
2018-08-28T02:45:36.468Z,8.73
2018-08-28T02:48:03.410Z,8.50
2018-08-28T02:50:30.505Z,8.50
2018-08-28T02:52:57.454Z,8.50
2018-08-28T02:55:24.778Z,8.30
2018-08-28T02:57:52.724Z,7.87
2018-08-28T03:00:19.661Z,8.23
2018-08-28T03:02:47.019Z,7.57
2018-08-28T03:05:13.888Z,8.23
2018-08-28T03:07:40.821Z,8.23
2018-08-28T03:10:07.784Z,7.20
2018-08-28T03:12:35.400Z,7.40
2018-08-28T03:15:02.341Z,8.30
2018-08-28T03:17:29.640Z,7.67
2018-08-28T03:19:56.583Z,7.60
2018-08-28T03:22:23.554Z,8.03
2018-08-28T03:24:50.811Z,7.40
2018-08-28T03:27:17.769Z,7.50
2018-08-28T03:29:44.705Z,9.00
2018-08-28T03:32:12.027Z,8.00
2018-08-28T03:34:38.980Z,8.20
2018-08-28T03:37:05.945Z,11.17
2018-08-28T03:39:33.249Z,8.87
2018-08-28T03:42:00.191Z,8.30
2018-08-28T03:44:27.132Z,7.63
2018-08-28T03:46:54.100Z,7.27
2018-08-28T03:49:21.072Z,7.40
2018-08-28T03:51:48.008Z,7.50
2018-08-28T03:54:14.966Z,7.63
2018-08-28T03:56:41.937Z,7.40
2018-08-28T03:59:09.041Z,7.60
2018-08-28T04:01:36.295Z,7.50
2018-08-28T04:04:03.204Z,6.83
2018-08-28T04:06:30.144Z,7.17
2018-08-28T04:08:57.517Z,7.50
2018-08-28T04:11:24.447Z,8.03
2018-08-28T04:13:51.379Z,7.23
2018-08-28T04:16:18.694Z,9.10
2018-08-28T04:18:45.645Z,9.87
2018-08-28T04:21:12.604Z,8.47
2018-08-28T04:23:39.571Z,8.20
2018-08-28T04:26:06.497Z,7.23
2018-08-28T04:28:33.446Z,7.90
2018-08-28T04:31:00.999Z,7.30
2018-08-28T04:33:27.851Z,7.77
2018-08-28T04:35:54.785Z,6.57
2018-08-28T04:38:22.052Z,6.93
2018-08-28T04:40:48.987Z,6.50
2018-08-28T04:43:15.912Z,6.30
2018-08-28T04:45:43.267Z,6.93
2018-08-28T04:48:10.364Z,6.63
2018-08-28T04:50:37.670Z,6.97
2018-08-28T04:53:04.669Z,6.63
2018-08-28T04:55:31.671Z,6.17
2018-08-28T04:57:58.630Z,7.40
2018-08-28T05:00:25.847Z,5.90
2018-08-28T05:02:52.779Z,6.70
2018-08-28T05:05:19.695Z,6.33
2018-08-28T05:07:47.028Z,6.63
2018-08-28T05:10:13.960Z,6.07
2018-08-28T05:12:40.919Z,6.50
2018-08-28T05:15:08.133Z,6.33
2018-08-28T05:17:35.062Z,6.60
2018-08-28T05:20:01.995Z,6.67
2018-08-28T05:22:28.930Z,5.50
2018-08-28T05:24:55.883Z,6.40
2018-08-28T05:27:22.922Z,6.20
2018-08-28T05:29:50.169Z,6.40
2018-08-28T05:32:17.128Z,6.07
2018-08-28T05:34:44.399Z,5.90
2018-08-28T05:37:11.630Z,6.33
2018-08-28T05:39:38.681Z,6.43
2018-08-28T05:42:05.613Z,5.90
2018-08-28T05:44:32.561Z,5.97
2018-08-28T05:46:59.484Z,6.20
2018-08-28T05:49:26.530Z,6.30
2018-08-28T05:51:53.853Z,6.53
2018-08-28T05:54:20.784Z,6.03
2018-08-28T05:56:47.702Z,5.20
2018-08-28T05:59:14.997Z,5.67
2018-08-28T06:01:41.921Z,5.30
2018-08-28T06:04:08.861Z,6.03
2018-08-28T06:06:35.796Z,5.70
2018-08-28T06:09:02.896Z,4.93
2018-08-28T06:11:29.809Z,7.70
2018-08-28T06:13:57.077Z,5.50
2018-08-28T06:16:23.997Z,4.93
2018-08-28T06:18:50.941Z,4.83
2018-08-28T06:21:17.902Z,5.10
2018-08-28T06:23:44.834Z,5.67
2018-08-28T06:26:11.761Z,5.63
2018-08-28T06:28:39.052Z,5.20
2018-08-28T06:31:05.968Z,5.43
2018-08-28T06:33:32.900Z,5.13
2018-08-28T06:36:00.196Z,5.33
2018-08-28T06:38:27.117Z,5.43
2018-08-28T06:40:54.067Z,4.97
2018-08-28T06:43:21.026Z,5.50
2018-08-28T06:45:48.091Z,4.80
2018-08-28T06:48:15.027Z,5.70
2018-08-28T06:50:42.323Z,5.47
2018-08-28T06:53:09.352Z,4.67
2018-08-28T06:55:36.309Z,7.50
2018-08-28T06:58:03.560Z,6.67
2018-08-28T07:00:30.536Z,5.30
2018-08-28T07:02:57.516Z,5.13
2018-08-28T07:05:24.884Z,4.50
2018-08-28T07:07:51.939Z,5.40
2018-08-28T07:10:19.009Z,4.73
2018-08-28T07:12:46.006Z,5.43
2018-08-28T07:15:12.949Z,5.37
2018-08-28T07:17:40.135Z,4.90
2018-08-28T07:20:07.568Z,5.47
2018-08-28T07:22:34.601Z,5.10
2018-08-28T07:25:01.644Z,4.40
2018-08-28T07:27:29.080Z,5.07
2018-08-28T07:29:56.128Z,4.67
2018-08-28T07:32:23.176Z,4.43
2018-08-28T07:34:50.264Z,4.90
2018-08-28T07:37:17.374Z,4.13
2018-08-28T07:39:44.339Z,4.03
2018-08-28T07:42:11.720Z,5.07
2018-08-28T07:44:38.766Z,4.70
2018-08-28T07:47:05.816Z,4.37
2018-08-28T07:49:33.157Z,5.20
2018-08-28T07:52:00.192Z,5.37
2018-08-28T07:54:27.222Z,4.63
2018-08-28T07:56:54.221Z,4.10
2018-08-28T07:59:21.284Z,5.03
2018-08-28T08:01:48.367Z,4.37
2018-08-28T08:04:16.683Z,6.10
2018-08-28T08:06:43.776Z,4.70
2018-08-28T08:09:11.392Z,5.40
2018-08-28T08:11:38.880Z,4.10
2018-08-28T08:14:05.918Z,4.80
2018-08-28T08:16:33.010Z,4.40
2018-08-28T08:19:00.397Z,4.80
2018-08-28T08:21:27.460Z,4.43
2018-08-28T08:23:54.503Z,4.50
2018-08-28T08:26:22.286Z,4.07
2018-08-28T08:28:49.328Z,4.20
2018-08-28T08:31:16.397Z,3.83
2018-08-28T08:33:43.533Z,6.40
2018-08-28T08:36:10.592Z,4.93
2018-08-28T08:38:37.630Z,6.30
2018-08-28T08:41:05.055Z,4.50
2018-08-28T08:43:32.101Z,10.13
2018-08-28T08:45:59.113Z,5.80
2018-08-28T08:48:26.152Z,4.80
2018-08-28T08:50:53.170Z,5.33
2018-08-28T08:53:20.218Z,6.43
2018-08-28T08:55:47.565Z,4.87
2018-08-28T08:58:14.605Z,4.53
2018-08-28T09:00:41.619Z,6.00
2018-08-28T09:03:09.108Z,3.23
2018-08-28T09:05:36.144Z,9.30
2018-08-28T09:08:03.207Z,7.00
2018-08-28T09:10:30.268Z,4.17
2018-08-28T09:12:57.297Z,3.27
2018-08-28T09:15:24.564Z,7.30
2018-08-28T09:17:51.898Z,5.73
2018-08-28T09:20:18.927Z,5.80
2018-08-28T09:22:45.955Z,4.43
2018-08-28T09:25:13.346Z,3.30
2018-08-28T09:27:40.387Z,4.87
2018-08-28T09:30:07.676Z,4.40
2018-08-28T09:32:35.139Z,7.73
2018-08-28T09:35:02.177Z,4.27
2018-08-28T09:37:29.236Z,3.80
2018-08-28T09:39:56.314Z,5.10
2018-08-28T09:42:23.401Z,5.23
2018-08-28T09:44:50.452Z,3.80
2018-08-28T09:47:17.767Z,4.17
2018-08-28T09:49:44.795Z,4.33
2018-08-28T09:52:11.831Z,3.90
2018-08-28T09:54:39.233Z,4.90
2018-08-28T09:57:06.350Z,3.50
2018-08-28T09:59:33.388Z,4.10
2018-08-28T10:02:00.455Z,5.57
2018-08-28T10:04:27.527Z,6.17
2018-08-28T10:06:54.556Z,4.90
2018-08-28T10:09:21.948Z,4.10
2018-08-28T10:11:48.985Z,7.57
2018-08-28T10:14:16.022Z,8.47
2018-08-28T10:16:43.424Z,4.20
2018-08-28T10:19:10.514Z,6.43
2018-08-28T10:21:37.957Z,7.00
2018-08-28T10:24:05.158Z,8.57
2018-08-28T10:26:32.265Z,10.50
2018-08-28T10:28:59.332Z,5.50
2018-08-28T10:31:26.770Z,6.77
2018-08-28T10:33:53.837Z,6.73
2018-08-28T10:36:21.014Z,6.90
2018-08-28T10:38:48.630Z,6.00
2018-08-28T10:41:15.774Z,5.30
2018-08-28T10:43:42.823Z,5.90
2018-08-28T10:46:09.980Z,7.00
2018-08-28T10:48:37.086Z,6.07
2018-08-28T10:51:04.189Z,4.90
2018-08-28T10:53:31.618Z,6.33
2018-08-28T10:55:58.714Z,4.33
2018-08-28T10:58:27.830Z,5.10
2018-08-28T11:00:57.109Z,5.30
2018-08-28T11:03:24.318Z,4.73
2018-08-28T11:05:51.513Z,5.80
2018-08-28T11:08:18.560Z,4.80
2018-08-28T11:10:45.713Z,5.03
2018-08-28T11:13:12.825Z,6.07
2018-08-28T11:15:40.140Z,6.10
2018-08-28T11:18:07.193Z,7.37
2018-08-28T11:20:34.281Z,5.10
2018-08-28T11:23:01.887Z,5.17
2018-08-28T11:25:29.077Z,5.10
2018-08-28T11:27:56.182Z,5.90
2018-08-28T11:30:23.561Z,4.80
2018-08-28T11:32:50.619Z,5.47
2018-08-28T11:35:17.673Z,4.67
2018-08-28T11:37:44.811Z,4.83
2018-08-28T11:40:12.025Z,5.47
2018-08-28T11:42:39.078Z,5.63
2018-08-28T11:45:06.485Z,4.93
2018-08-28T11:47:33.608Z,4.80
2018-08-28T11:50:00.681Z,5.20
2018-08-28T11:52:28.116Z,6.40
2018-08-28T11:54:55.259Z,6.43
2018-08-28T11:57:22.379Z,6.33
2018-08-28T11:59:49.594Z,5.57
2018-08-28T12:02:16.626Z,5.20
2018-08-28T12:04:43.725Z,6.30
2018-08-28T12:07:11.286Z,6.33
2018-08-28T12:09:38.328Z,6.77
2018-08-28T12:12:05.356Z,9.63
2018-08-28T12:14:32.776Z,5.17
2018-08-28T12:16:59.823Z,5.47
2018-08-28T12:19:26.942Z,6.30
2018-08-28T12:21:54.100Z,5.47
2018-08-28T12:24:21.219Z,7.60
2018-08-28T12:26:48.442Z,7.30
2018-08-28T12:29:15.648Z,5.37
2018-08-28T12:31:42.715Z,5.23
2018-08-28T12:34:09.712Z,4.90
2018-08-28T12:36:36.820Z,5.13
2018-08-28T12:39:05.058Z,5.37
2018-08-28T12:41:32.054Z,7.30
2018-08-28T12:43:59.368Z,4.63
2018-08-28T12:46:26.260Z,8.37
2018-08-28T12:48:53.324Z,5.83
2018-08-28T12:51:20.814Z,6.47
2018-08-28T12:53:47.910Z,4.73
2018-08-28T12:56:15.013Z,5.60
2018-08-28T12:58:42.104Z,11.53
2018-08-28T13:01:09.196Z,7.13
2018-08-28T13:03:36.274Z,5.27
2018-08-28T13:06:03.796Z,6.47
2018-08-28T13:08:31.188Z,6.40
2018-08-28T13:10:58.306Z,4.77
2018-08-28T13:13:25.661Z,5.07
2018-08-28T13:15:52.753Z,5.80
2018-08-28T13:18:19.935Z,6.03
2018-08-28T13:20:47.097Z,5.43
2018-08-28T13:23:14.170Z,4.90
2018-08-28T13:25:41.248Z,5.30
2018-08-28T13:28:08.657Z,5.37
2018-08-28T13:30:35.711Z,4.97
2018-08-28T13:33:02.842Z,5.77
2018-08-28T13:35:30.300Z,5.10
2018-08-28T13:37:57.414Z,5.90
2018-08-28T13:40:24.584Z,6.00
2018-08-28T13:42:51.653Z,5.80
2018-08-28T13:45:18.745Z,4.33
2018-08-28T13:47:45.828Z,5.17
2018-08-28T13:50:13.250Z,5.00
2018-08-28T13:52:40.304Z,4.30
2018-08-28T13:55:07.361Z,5.70
2018-08-28T13:57:34.688Z,5.40
2018-08-28T14:00:01.812Z,4.70
2018-08-28T14:02:28.870Z,4.50
2018-08-28T14:04:56.085Z,4.37
2018-08-28T14:07:23.253Z,5.50
2018-08-28T14:09:50.263Z,4.80
2018-08-28T14:12:17.429Z,6.80
2018-08-28T14:14:44.464Z,4.80
2018-08-28T14:17:11.587Z,4.10
2018-08-28T14:19:38.938Z,5.30
2018-08-28T14:22:06.016Z,6.23
2018-08-28T14:24:33.145Z,5.20
2018-08-28T14:27:00.521Z,5.27
2018-08-28T14:29:27.635Z,5.27
2018-08-28T14:31:54.632Z,5.77
2018-08-28T14:34:21.761Z,5.80
2018-08-28T14:36:48.845Z,22.53
2018-08-28T14:39:15.967Z,5.70
2018-08-28T14:41:43.288Z,6.97
2018-08-28T14:44:10.395Z,5.50
2018-08-28T14:46:37.489Z,5.67
2018-08-28T14:49:04.606Z,6.87
2018-08-28T14:51:31.698Z,6.00
2018-08-28T14:53:58.763Z,5.53
2018-08-28T14:56:26.534Z,6.30
2018-08-28T14:58:53.719Z,6.60
2018-08-28T15:01:20.661Z,5.93
2018-08-28T15:03:47.624Z,5.60
2018-08-28T15:06:14.930Z,6.37
2018-08-28T15:08:41.888Z,6.50
2018-08-28T15:11:09.529Z,6.20
2018-08-28T15:13:36.528Z,6.97
2018-08-28T15:16:03.643Z,7.10
2018-08-28T15:18:30.643Z,5.53
2018-08-28T15:20:57.729Z,5.23
2018-08-28T15:23:24.734Z,6.00
2018-08-28T15:25:52.026Z,5.47
2018-08-28T15:28:19.025Z,6.43
2018-08-28T15:30:46.036Z,6.07
2018-08-28T15:33:13.403Z,6.77
2018-08-28T15:35:40.394Z,5.50
2018-08-28T15:38:07.373Z,6.00
2018-08-28T15:40:34.712Z,5.73
2018-08-28T15:43:01.825Z,5.37
2018-08-28T15:45:28.973Z,5.83
2018-08-28T15:47:56.130Z,5.63
2018-08-28T15:50:23.449Z,5.50
2018-08-28T15:52:50.513Z,5.23
2018-08-28T15:55:17.949Z,6.53
2018-08-28T15:57:44.996Z,5.90
2018-08-28T16:00:12.040Z,6.40
2018-08-28T16:02:39.154Z,5.80
2018-08-28T16:05:06.227Z,6.23
2018-08-28T16:07:33.273Z,9.50
2018-08-28T16:10:01.577Z,5.70
2018-08-28T16:12:28.750Z,5.63
2018-08-28T16:14:55.831Z,6.30
2018-08-28T16:17:22.941Z,7.10
2018-08-28T16:19:50.036Z,6.37
2018-08-28T16:22:21.644Z,6.20
2018-08-28T16:24:49.075Z,7.67
2018-08-28T16:27:16.155Z,6.17
2018-08-28T16:29:43.222Z,9.33
2018-08-28T16:32:10.643Z,8.57
2018-08-28T16:34:37.792Z,9.23
2018-08-28T16:37:04.869Z,12.23
2018-08-28T16:39:32.205Z,9.23
2018-08-28T16:41:59.090Z,7.77
2018-08-28T16:44:26.065Z,6.53
2018-08-28T16:46:53.457Z,17.00
2018-08-28T16:49:20.714Z,11.00
2018-08-28T16:51:47.728Z,9.93
2018-08-28T16:54:15.262Z,7.60
2018-08-28T16:56:42.272Z,7.20
2018-08-28T16:59:09.299Z,14.47
2018-08-28T17:01:36.822Z,15.73
2018-08-28T17:04:03.808Z,10.40
2018-08-28T17:06:30.864Z,9.47
2018-08-28T17:08:58.243Z,8.00
2018-08-28T17:11:25.334Z,11.93
2018-08-28T17:13:52.400Z,12.60
2018-08-28T17:16:19.728Z,11.10
2018-08-28T17:18:46.813Z,13.00
2018-08-28T17:21:13.893Z,10.47
2018-08-28T17:23:41.225Z,7.70
2018-08-28T17:26:08.256Z,7.47
2018-08-28T17:28:35.402Z,8.00
2018-08-28T17:31:02.531Z,8.63
2018-08-28T17:33:29.437Z,16.57
2018-08-28T17:35:56.548Z,29.40
2018-08-28T17:38:23.797Z,8.43
2018-08-28T17:40:50.937Z,10.10
2018-08-28T17:43:17.959Z,13.27
2018-08-28T17:45:44.947Z,10.77
2018-08-28T17:48:12.016Z,7.13
2018-08-28T17:50:39.099Z,8.00
2018-08-28T17:53:06.455Z,8.60
2018-08-28T17:55:33.597Z,17.50
2018-08-28T17:58:00.766Z,7.83
2018-08-28T18:00:27.852Z,15.13
2018-08-28T18:02:55.020Z,9.70
2018-08-28T18:05:22.058Z,10.33
2018-08-28T18:07:49.350Z,9.80
2018-08-28T18:10:16.268Z,23.30
2018-08-28T18:12:43.290Z,11.70
2018-08-28T18:15:10.623Z,10.57
2018-08-28T18:17:37.653Z,14.70
2018-08-28T18:20:04.664Z,18.30
2018-08-28T18:22:31.691Z,10.57
2018-08-28T18:24:58.988Z,9.07
2018-08-28T18:27:25.950Z,10.47
2018-08-28T18:29:52.979Z,16.57
2018-08-28T18:32:20.276Z,10.90
2018-08-28T18:34:47.243Z,12.43
2018-08-28T18:37:14.466Z,12.37
2018-08-28T18:39:41.443Z,14.67
2018-08-28T18:42:08.494Z,14.40
2018-08-28T18:44:35.781Z,16.63
2018-08-28T18:47:02.824Z,12.43
2018-08-28T18:49:29.788Z,14.70
2018-08-28T18:51:57.369Z,13.10
2018-08-28T18:54:24.444Z,12.20
2018-08-28T18:56:51.439Z,10.83
2018-08-28T18:59:18.892Z,10.80
2018-08-28T19:01:45.899Z,15.37
2018-08-28T19:04:12.941Z,23.33
2018-08-28T19:06:40.449Z,8.30
2018-08-28T19:09:07.415Z,7.40
2018-08-28T19:11:34.398Z,8.87
2018-08-28T19:14:01.365Z,9.50
2018-08-28T19:16:28.382Z,9.30
2018-08-28T19:18:55.336Z,7.10
2018-08-28T19:21:22.677Z,8.87
2018-08-28T19:23:49.627Z,9.50
2018-08-28T19:26:16.605Z,10.47
2018-08-28T19:28:43.801Z,9.63
2018-08-28T19:31:10.751Z,7.10
2018-08-28T19:33:37.860Z,6.10
2018-08-28T19:36:05.414Z,7.90
2018-08-28T19:38:32.423Z,7.60
2018-08-28T19:40:59.367Z,8.80
2018-08-28T19:43:26.705Z,9.50
2018-08-28T19:45:53.670Z,10.77
2018-08-28T19:48:20.751Z,10.43
2018-08-28T19:50:48.153Z,13.27
2018-08-28T19:53:15.510Z,12.30
2018-08-28T19:55:42.626Z,14.73
2018-08-28T19:58:10.011Z,15.70
2018-08-28T20:00:37.069Z,23.90
2018-08-28T20:03:04.460Z,13.80
2018-08-28T20:05:31.731Z,17.40
2018-08-28T20:07:58.742Z,14.93
2018-08-28T20:10:25.841Z,11.80
2018-08-28T20:12:53.069Z,9.13
2018-08-28T20:15:20.107Z,15.53
2018-08-28T20:17:47.167Z,11.23
2018-08-28T20:20:14.165Z,17.60
2018-08-28T20:22:41.346Z,15.13
2018-08-28T20:25:08.352Z,10.83
2018-08-28T20:27:35.686Z,10.67
2018-08-28T20:30:02.673Z,10.43
2018-08-28T20:32:29.688Z,15.97
2018-08-28T20:34:57.075Z,16.43
2018-08-28T20:37:24.110Z,10.77
2018-08-28T20:39:51.005Z,16.80
2018-08-28T20:42:18.068Z,16.00
2018-08-28T20:44:45.041Z,10.03
2018-08-28T20:47:12.026Z,8.70
2018-08-28T20:49:39.340Z,9.37
2018-08-28T20:52:06.394Z,9.00
2018-08-28T20:54:33.521Z,9.20
2018-08-28T20:57:01.003Z,8.80
2018-08-28T20:59:28.072Z,6.77
2018-08-28T21:01:55.168Z,8.40
2018-08-28T21:04:22.521Z,8.20
2018-08-28T21:06:49.666Z,7.90
2018-08-28T21:09:16.651Z,10.30
2018-08-28T21:11:43.743Z,11.33
2018-08-28T21:14:10.846Z,8.97
2018-08-28T21:16:37.970Z,7.73
2018-08-28T21:19:05.405Z,7.87
2018-08-28T21:21:32.524Z,8.00
2018-08-28T21:23:59.677Z,7.60
2018-08-28T21:26:27.065Z,11.20
2018-08-28T21:28:54.205Z,10.23
2018-08-28T21:31:21.301Z,10.60
2018-08-28T21:33:48.420Z,9.17
2018-08-28T21:36:15.455Z,11.50
2018-08-28T21:38:42.537Z,12.67
2018-08-28T21:41:09.893Z,9.43
2018-08-28T21:43:36.999Z,10.57
2018-08-28T21:46:04.060Z,9.77
2018-08-28T21:48:31.428Z,9.50
2018-08-28T21:50:58.444Z,9.23
2018-08-28T21:53:25.538Z,9.77
2018-08-28T21:55:52.620Z,10.10
2018-08-28T21:58:19.845Z,8.37
2018-08-28T22:00:53.305Z,8.97
2018-08-28T22:03:20.356Z,9.23
2018-08-28T22:05:50.926Z,9.77
2018-08-28T22:08:19.283Z,8.83
2018-08-28T22:10:46.386Z,8.60
2018-08-28T22:13:13.467Z,9.60
2018-08-28T22:15:40.793Z,8.63
2018-08-28T22:18:07.861Z,9.23
2018-08-28T22:20:34.985Z,10.47
2018-08-28T22:23:02.406Z,10.83
2018-08-28T22:25:29.530Z,9.60
2018-08-28T22:27:56.680Z,8.33
2018-08-28T22:30:24.350Z,10.80
2018-08-28T22:32:51.417Z,10.07
2018-08-28T22:35:18.474Z,10.33
2018-08-28T22:37:45.550Z,8.90
2018-08-28T22:40:12.677Z,10.83
2018-08-28T22:42:39.758Z,8.50
2018-08-28T22:45:06.932Z,10.07
2018-08-28T22:47:34.050Z,10.00
2018-08-28T22:50:01.132Z,8.80
2018-08-28T22:52:28.581Z,9.53
2018-08-28T22:54:55.657Z,8.93
2018-08-28T22:57:22.718Z,9.00
2018-08-28T22:59:50.132Z,8.67
2018-08-28T23:02:17.167Z,10.07
2018-08-28T23:04:44.109Z,10.20
2018-08-28T23:07:11.086Z,9.83
2018-08-28T23:09:38.060Z,9.70
2018-08-28T23:12:05.038Z,8.30
2018-08-28T23:14:32.352Z,9.03
2018-08-28T23:16:59.316Z,9.37
2018-08-28T23:19:26.248Z,8.17
2018-08-28T23:21:53.526Z,7.63
2018-08-28T23:24:20.495Z,7.53
2018-08-28T23:26:47.511Z,7.40
2018-08-28T23:29:14.537Z,7.70
2018-08-28T23:31:41.474Z,8.10
2018-08-28T23:34:08.469Z,7.17
2018-08-28T23:36:35.762Z,7.17
2018-08-28T23:39:02.830Z,7.80
2018-08-28T23:41:29.834Z,7.70
2018-08-28T23:43:57.207Z,8.23
2018-08-28T23:46:24.242Z,7.13
2018-08-28T23:48:51.200Z,7.20
2018-08-28T23:51:18.414Z,7.80
2018-08-28T23:53:45.381Z,7.40
2018-08-28T23:56:12.342Z,8.30
2018-08-28T23:58:39.313Z,7.77
